Time;durP1;ratioP1;P1;durP2;ratioP2;P2;SDS_P1;SDS_P2;PMS_P1;PMS_P2;Temp;Humidity;BMP_temperature;BMP_pressure;BME280_temperature;BME280_humidity;BME280_pressure;Samples;Min_cycle;Max_cycle;Signal;HPM_P1;HPM_P2
2024/02/17 00:03:29;;;;;;;3.17;2.40;;;;;;;11.82;100.00;151649.31;10611895;28;20559;-74
2024/02/17 00:08:31;;;;;;;3.40;2.78;;;;;;;11.68;100.00;151613.16;10629954;28;20040;-74
2024/02/17 00:13:33;;;;;;;4.28;3.80;;;;;;;11.58;100.00;151589.91;10630039;28;20131;-74
2024/02/17 00:18:35;;;;;;;2.88;2.67;;;;;;;11.47;100.00;151560.22;10564020;27;1920608;-76
2024/02/17 00:23:37;;;;;;;3.90;3.50;;;;;;;11.59;100.00;151591.19;10631051;27;20422;-73
2024/02/17 00:28:39;;;;;;;5.38;3.25;;;;;;;11.61;100.00;151597.66;10631626;27;20039;-72
2024/02/17 00:33:40;;;;;;;4.25;3.78;;;;;;;11.54;100.00;151579.56;10630419;27;20070;-74
2024/02/17 00:38:44;;;;;;;3.63;3.33;;;;;;;11.65;100.00;151605.44;10612355;27;20043;-73
2024/02/17 00:43:45;;;;;;;4.72;4.15;;;;;;;11.57;100.00;151587.31;10630449;27;20067;-73
2024/02/17 00:48:47;;;;;;;4.25;3.85;;;;;;;11.42;100.00;151548.59;10611890;27;20060;-72
2024/02/17 00:53:49;;;;;;;5.13;4.13;;;;;;;11.29;100.00;151515.00;10630977;27;20039;-73
2024/02/17 00:58:51;;;;;;;4.93;3.08;;;;;;;11.23;100.00;151499.47;10612491;27;20109;-73
2024/02/17 01:03:53;;;;;;;2.88;2.47;;;;;;;11.30;100.00;151518.84;10610367;27;20495;-72
2024/02/17 01:08:55;;;;;;;3.15;2.90;;;;;;;11.14;100.00;151476.22;10610789;27;20579;-73
2024/02/17 01:13:57;;;;;;;2.35;2.15;;;;;;;11.40;100.00;151543.38;10628941;27;20201;-72
2024/02/17 01:18:59;;;;;;;3.28;2.40;;;;;;;11.28;100.00;151512.38;10607755;27;20138;-74
2024/02/17 01:24:01;;;;;;;2.63;2.22;;;;;;;11.33;100.00;151526.63;10638197;27;20392;-74
2024/02/17 01:29:03;;;;;;;4.10;2.30;;;;;;;11.23;100.00;151499.47;10637483;27;20047;-73
2024/02/17 01:34:06;;;;;;;2.67;2.33;;;;;;;11.09;100.00;151464.59;10636575;27;20042;-73
2024/02/17 01:39:08;;;;;;;4.10;3.00;;;;;;;10.73;100.00;151372.91;10628076;27;20043;-74
2024/02/17 01:44:10;;;;;;;3.35;3.03;;;;;;;10.88;100.00;151411.63;10626855;27;20114;-75
2024/02/17 01:49:12;;;;;;;4.32;3.35;;;;;;;10.88;100.00;151411.63;10626201;27;20047;-75
2024/02/17 01:54:15;;;;;;;4.22;3.58;;;;;;;10.60;100.00;151341.91;10626969;27;20110;-73
2024/02/17 01:59:18;;;;;;;5.05;4.35;;;;;;;10.49;100.00;151313.53;10628347;27;20091;-73
2024/02/17 02:04:20;;;;;;;4.45;3.75;;;;;;;10.71;100.00;151369.00;10608292;27;20073;-73
2024/02/17 02:09:25;;;;;;;5.85;4.00;;;;;;;10.82;100.00;151397.44;10626469;27;20043;-73
2024/02/17 02:14:27;;;;;;;4.30;3.95;;;;;;;10.91;100.00;151418.09;10626406;28;20031;-74
2024/02/17 02:19:29;;;;;;;5.13;4.57;;;;;;;10.95;100.00;151429.72;10607705;28;20047;-73
2024/02/17 02:24:33;;;;;;;4.50;4.13;;;;;;;10.64;100.00;151350.94;10609088;28;20051;-73
2024/02/17 02:29:34;;;;;;;5.88;4.80;;;;;;;10.51;100.00;151317.38;10625745;28;20050;-73
2024/02/17 02:34:36;;;;;;;4.55;4.00;;;;;;;10.48;100.00;151310.91;10625649;28;20039;-73
2024/02/17 02:39:38;;;;;;;6.00;4.78;;;;;;;10.74;100.00;151376.75;10625345;28;20043;-73
2024/02/17 02:44:40;;;;;;;5.03;4.63;;;;;;;10.79;100.00;151389.66;10625440;28;20057;-73
2024/02/17 02:49:42;;;;;;;5.40;4.90;;;;;;;10.52;100.00;151319.94;10625905;28;20043;-73
2024/02/17 02:54:44;;;;;;;5.82;5.32;;;;;;;10.49;100.00;151313.53;10624742;28;20039;-73
2024/02/17 02:59:46;;;;;;;13.30;6.50;;;;;;;10.42;100.00;151294.13;10625045;28;20055;-74
2024/02/17 03:04:48;;;;;;;7.85;7.15;;;;;;;10.36;100.00;151279.94;10624379;28;20444;-74
2024/02/17 03:09:52;;;;;;;8.98;8.07;;;;;;;10.50;100.00;151314.81;10606873;27;20043;-73
2024/02/17 03:14:54;;;;;;;9.38;8.48;;;;;;;10.42;100.00;151294.13;10633252;27;20047;-73
2024/02/17 03:19:56;;;;;;;8.93;8.15;;;;;;;10.41;100.00;151292.84;10632978;27;20062;-73
2024/02/17 03:24:58;;;;;;;9.70;8.80;;;;;;;10.31;100.00;151268.34;10632565;27;20049;-73
2024/02/17 03:30:00;;;;;;;10.82;8.10;;;;;;;10.22;100.00;151245.00;10632240;27;20039;-73
2024/02/17 03:35:03;;;;;;;16.70;8.48;;;;;;;10.26;100.00;151255.38;10632764;27;20529;-73
2024/02/17 03:40:08;;;;;;;8.93;8.15;;;;;;;10.33;100.00;151272.19;10631900;27;20051;-73
2024/02/17 03:45:10;;;;;;;9.43;8.52;;;;;;;9.97;100.00;151180.50;10630861;27;20068;-73
2024/02/17 03:50:12;;;;;;;10.52;9.52;;;;;;;9.96;100.00;151179.22;10630681;27;20126;-74
2024/02/17 03:55:14;;;;;;;9.60;8.60;;;;;;;10.11;100.00;151217.91;10630335;27;20099;-73
2024/02/17 04:00:16;;;;;;;9.60;8.70;;;;;;;9.92;100.00;151168.91;10630725;27;20067;-73
2024/02/17 04:05:18;;;;;;;8.98;8.10;;;;;;;10.15;100.00;151225.69;10611266;27;20448;-73
2024/02/17 04:10:20;;;;;;;9.40;8.50;;;;;;;10.31;100.00;151267.00;10629860;27;20092;-73
2024/02/17 04:15:21;;;;;;;8.32;7.53;;;;;;;10.32;100.00;151270.91;10630155;27;20057;-73
2024/02/17 04:20:23;;;;;;;9.68;8.77;;;;;;;10.06;100.00;151203.75;10631045;27;20054;-73
2024/02/17 04:25:25;;;;;;;10.40;9.38;;;;;;;10.18;100.00;151233.41;10610299;27;20053;-73
2024/02/17 04:30:27;;;;;;;12.27;11.07;;;;;;;10.08;100.00;151210.16;10629319;27;20164;-73
2024/02/17 04:35:31;;;;;;;11.00;9.98;;;;;;;10.04;100.00;151198.53;10629192;27;20050;-73
2024/02/17 04:40:35;;;;;;;11.15;10.05;;;;;;;9.89;100.00;151161.13;10629971;27;20043;-74
2024/02/17 04:45:36;;;;;;;12.18;11.05;;;;;;;9.98;100.00;151184.38;10611372;27;20039;-73
2024/02/17 04:50:38;;;;;;;12.07;10.88;;;;;;;9.92;100.00;151167.63;10629492;27;20112;-73
2024/02/17 04:55:40;;;;;;;10.35;9.35;;;;;;;9.93;100.00;151171.47;10628635;27;20602;-74
2024/02/17 05:00:42;;;;;;;12.07;10.38;;;;;;;9.96;100.00;151177.88;10610005;27;20067;-74
2024/02/17 05:05:44;;;;;;;10.07;9.18;;;;;;;10.01;100.00;151192.13;10627867;27;20488;-74
2024/02/17 05:10:46;;;;;;;9.75;8.82;;;;;;;9.94;100.00;151172.75;10627947;27;20191;-74
2024/02/17 05:15:48;;;;;;;8.90;8.10;;;;;;;9.84;100.00;151148.25;10627702;27;20039;-73
2024/02/17 05:20:50;;;;;;;8.90;8.10;;;;;;;9.94;100.00;151174.03;10609242;27;20118;-74
2024/02/17 05:25:54;;;;;;;8.63;7.82;;;;;;;9.84;100.00;151148.25;10627727;27;20039;-74
2024/02/17 05:30:56;;;;;;;7.60;6.90;;;;;;;9.94;100.00;151174.03;10627840;27;20166;-74
2024/02/17 05:35:58;;;;;;;8.85;7.95;;;;;;;9.85;100.00;151150.81;10626298;27;20042;-73
2024/02/17 05:41:00;;;;;;;9.32;8.23;;;;;;;9.79;100.00;151135.34;10626558;27;20072;-74
2024/02/17 05:46:02;;;;;;;10.05;9.07;;;;;;;9.94;100.00;151172.75;10626708;27;20047;-73
2024/02/17 05:51:04;;;;;;;8.82;7.93;;;;;;;9.76;100.00;151128.88;10608869;27;20139;-73
2024/02/17 05:56:06;;;;;;;11.55;9.27;;;;;;;9.99;100.00;151185.66;10627421;27;20031;-73
2024/02/17 06:01:08;;;;;;;9.00;8.20;;;;;;;9.99;100.00;151186.94;10627621;27;20099;-73
2024/02/17 06:06:10;;;;;;;9.10;8.18;;;;;;;10.01;100.00;151192.13;10626833;27;20039;-73
2024/02/17 06:11:12;;;;;;;9.23;8.20;;;;;;;9.84;100.00;151148.25;10607415;27;20043;-74
2024/02/17 06:16:14;;;;;;;8.75;7.85;;;;;;;9.99;100.00;151185.66;10626076;28;20118;-73
2024/02/17 06:21:20;;;;;;;9.52;8.18;;;;;;;9.93;100.00;151171.47;10626949;28;20039;-73
2024/02/17 06:26:27;;;;;;;12.90;8.23;;;;;;;9.83;100.00;151145.66;10627080;28;20402;-73
2024/02/17 06:31:29;;;;;;;8.45;7.47;;;;;;;9.88;100.00;151158.56;10590731;28;20065;-73
2024/02/17 06:36:36;;;;;;;8.45;6.65;;;;;;;9.96;100.00;151179.22;10627100;28;20452;-72
2024/02/17 06:41:38;;;;;;;7.72;6.80;;;;;;;9.62;100.00;151091.47;10626961;28;20411;-73
2024/02/17 06:46:44;;;;;;;8.25;6.18;;;;;;;9.61;100.00;151090.19;10629297;27;20031;-73
2024/02/17 06:51:46;;;;;;;9.02;7.25;;;;;;;9.83;100.00;151145.66;10616673;27;20043;-73
2024/02/17 06:56:48;;;;;;;7.63;6.32;;;;;;;9.82;100.00;151144.34;10635388;27;20406;-73
2024/02/17 07:01:50;;;;;;;8.40;7.35;;;;;;;9.86;100.00;151154.66;10617558;27;20039;-74
2024/02/17 07:06:51;;;;;;;8.32;6.78;;;;;;;9.62;100.00;151091.47;10617773;27;20084;-73
2024/02/17 07:11:53;;;;;;;8.48;7.63;;;;;;;9.75;100.00;151126.31;10617375;27;20039;-72
2024/02/17 07:16:56;;;;;;;8.23;7.43;;;;;;;9.70;100.00;151113.41;10636005;27;20039;-73
2024/02/17 07:21:58;;;;;;;9.43;8.07;;;;;;;9.88;100.00;151158.56;10635689;27;20096;-74
2024/02/17 07:27:00;;;;;;;9.93;8.27;;;;;;;9.79;100.00;151135.34;10635177;27;20077;-73
2024/02/17 07:32:02;;;;;;;8.93;8.02;;;;;;;9.83;100.00;151145.66;10634903;27;20054;-74
2024/02/17 07:37:04;;;;;;;8.75;7.90;;;;;;;10.10;100.00;151214.06;10635806;27;20039;-73
2024/02/17 07:42:07;;;;;;;8.85;7.97;;;;;;;10.11;100.00;151217.91;10632939;27;20074;-74
2024/02/17 07:47:09;;;;;;;9.32;8.13;;;;;;;10.32;100.00;151270.91;10633304;27;20035;-73
2024/02/17 07:52:11;;;;;;;8.70;7.90;;;;;;;10.38;100.00;151285.09;10614709;27;20043;-73
2024/02/17 07:57:12;;;;;;;7.32;6.63;;;;;;;10.46;100.00;151305.75;10633147;27;20036;-73
2024/02/17 08:02:14;;;;;;;6.88;6.28;;;;;;;10.18;100.00;151234.72;10633158;27;20387;-73
2024/02/17 08:07:16;;;;;;;6.57;5.97;;;;;;;10.17;100.00;151230.81;10633080;27;20047;-74
2024/02/17 08:12:23;;;;;;;7.05;6.35;;;;;;;10.21;100.00;151241.16;10612885;27;20135;-73
2024/02/17 08:17:25;;;;;;;8.13;6.00;;;;;;;10.36;100.00;151279.94;10632732;27;20126;-73
2024/02/17 08:22:27;;;;;;;6.80;6.07;;;;;;;10.54;100.00;151325.13;10633384;27;20103;-74
2024/02/17 08:27:29;;;;;;;6.35;5.72;;;;;;;10.44;100.00;151300.56;10633737;27;20037;-73
2024/02/17 08:32:32;;;;;;;5.32;4.68;;;;;;;10.66;100.00;151354.81;10614523;27;20518;-73
2024/02/17 08:37:34;;;;;;;4.97;3.92;;;;;;;10.68;100.00;151361.28;10614170;27;20047;-74
2024/02/17 08:42:36;;;;;;;4.47;4.07;;;;;;;10.68;100.00;151361.28;10631534;27;20054;-74
2024/02/17 08:47:38;;;;;;;4.40;4.03;;;;;;;10.63;100.00;151348.38;10633055;27;20039;-73
2024/02/17 08:52:40;;;;;;;3.15;2.85;;;;;;;10.53;100.00;151323.81;10630337;27;20050;-74
2024/02/17 08:57:42;;;;;;;4.03;3.47;;;;;;;10.40;100.00;151290.22;10631473;27;20042;-73
2024/02/17 09:02:44;;;;;;;4.80;3.75;;;;;;;10.35;100.00;151278.63;10629975;27;20139;-72
2024/02/17 09:07:46;;;;;;;4.65;3.78;;;;;;;10.58;100.00;151336.75;10593190;27;20112;-72
2024/02/17 09:12:49;;;;;;;8.18;3.40;;;;;;;10.37;100.00;151282.53;10628857;27;20527;-74
2024/02/17 09:17:50;;;;;;;4.05;3.70;;;;;;;10.53;100.00;151322.53;10635728;27;20031;-73
2024/02/17 09:22:52;;;;;;;4.13;3.80;;;;;;;10.21;100.00;151242.44;10634734;27;20043;-73
2024/02/17 09:27:54;;;;;;;5.07;4.10;;;;;;;10.27;100.00;151256.66;10611479;27;20061;-74
2024/02/17 09:32:56;;;;;;;4.47;4.07;;;;;;;10.46;100.00;151305.75;10599384;27;20082;-75
2024/02/17 09:37:58;;;;;;;3.40;3.10;;;;;;;10.34;100.00;151274.75;10588015;27;20093;-71
2024/02/17 09:43:00;;;;;;;4.47;3.47;;;;;;;10.41;100.00;151292.84;10629416;27;20043;-73
2024/02/17 09:48:04;;;;;;;4.72;3.15;;;;;;;10.34;100.00;151274.75;10611556;27;20039;-74
2024/02/17 09:53:08;;;;;;;4.10;2.63;;;;;;;10.46;98.35;151305.75;10630208;27;20043;-73
2024/02/17 09:58:09;;;;;;;3.25;2.85;;;;;;;10.29;98.07;151261.84;10601048;27;20054;-73
2024/02/17 10:03:11;;;;;;;4.00;3.63;;;;;;;10.27;100.00;151258.00;10586872;28;20083;-72
2024/02/17 10:08:14;;;;;;;5.05;2.90;;;;;;;10.28;100.00;151259.28;10586853;28;20491;-72
2024/02/17 10:13:20;;;;;;;3.28;2.53;;;;;;;10.27;100.00;151256.66;10587125;28;20458;-73
2024/02/17 10:18:23;;;;;;;4.07;3.60;;;;;;;10.37;99.02;151282.53;10566782;28;20074;-73
2024/02/17 10:23:25;;;;;;;3.92;2.72;;;;;;;10.40;98.09;151290.22;10574780;28;20051;-73
2024/02/17 10:28:29;;;;;;;3.67;2.60;;;;;;;10.46;97.68;151305.75;10594347;28;20040;-73
2024/02/17 10:33:30;;;;;;;2.95;2.53;;;;;;;10.50;96.37;151314.81;10592802;28;20071;-72
2024/02/17 10:38:34;;;;;;;3.72;2.42;;;;;;;10.42;97.53;151294.13;10574881;28;20043;-72
2024/02/17 10:43:40;;;;;;;4.82;2.55;;;;;;;10.27;95.65;151258.00;10575853;28;20047;-71
2024/02/17 10:48:48;;;;;;;2.45;2.25;;;;;;;10.37;93.45;151282.53;10575525;28;20104;-72
2024/02/17 10:53:59;;;;;;;2.53;1.85;;;;;;;10.10;95.90;151215.34;10574502;28;20047;-72
2024/02/17 10:59:03;;;;;;;2.78;2.28;;;;;;;9.96;97.57;151177.88;10593802;28;20040;-74
2024/02/17 11:04:07;;;;;;;2.65;2.38;;;;;;;10.35;98.28;151277.34;10574213;28;20086;-72
2024/02/17 11:09:10;;;;;;;3.40;2.33;;;;;;;10.43;95.63;151298.00;10574871;28;20064;-75
2024/02/17 11:14:39;;;;;;;2.35;2.00;;;;;;;10.71;92.95;151369.00;10593166;28;20457;-72
2024/02/17 11:19:47;;;;;;;2.45;1.83;;;;;;;10.83;89.87;151400.00;10591422;28;20044;-73
2024/02/17 11:24:50;;;;;;;2.75;2.08;;;;;;;11.02;88.46;151447.81;10591538;28;20050;-73
2024/02/17 11:29:52;;;;;;;2.35;2.10;;;;;;;10.91;87.12;151419.38;10593057;28;20039;-73
2024/02/17 11:34:55;;;;;;;2.33;1.55;;;;;;;10.90;86.79;151415.53;10593751;28;20439;-72
2024/02/17 11:40:00;;;;;;;2.13;1.88;;;;;;;10.79;87.85;151389.66;10593300;28;20050;-72
2024/02/17 11:45:04;;;;;;;1.70;1.48;;;;;;;11.03;86.36;151450.41;10591405;28;20126;-71
2024/02/17 11:50:12;;;;;;;2.15;1.30;;;;;;;11.02;87.96;151447.81;10592267;28;20035;-72
2024/02/17 11:55:16;;;;;;;2.78;1.80;;;;;;;11.23;85.15;151500.75;10589841;28;20051;-73
2024/02/17 12:00:18;;;;;;;2.58;1.70;;;;;;;11.23;84.85;151499.47;10590047;28;20487;-72
2024/02/17 12:05:20;;;;;;;4.07;1.52;;;;;;;10.98;83.34;151436.16;10591859;28;20040;-72
2024/02/17 12:10:23;;;;;;;2.22;1.20;;;;;;;10.86;83.16;151406.47;10572780;28;20039;-73
2024/02/17 12:15:25;;;;;;;2.63;1.42;;;;;;;11.00;83.87;151442.63;10591392;28;20065;-72
2024/02/17 12:20:27;;;;;;;1.58;1.40;;;;;;;11.19;81.89;151490.41;10590609;28;20047;-73
2024/02/17 12:25:31;;;;;;;1.70;1.60;;;;;;;10.95;83.74;151429.72;10589512;28;20047;-72
2024/02/17 12:30:45;;;;;;;2.08;1.58;;;;;;;10.94;84.97;151427.16;10587897;28;20035;-73
2024/02/17 12:35:48;;;;;;;2.05;1.65;;;;;;;10.96;86.94;151432.28;10588204;28;20093;-73
2024/02/17 12:40:51;;;;;;;2.42;2.03;;;;;;;10.92;85.11;151420.66;10586865;28;20071;-73
2024/02/17 12:45:53;;;;;;;2.72;2.40;;;;;;;11.07;84.88;151460.72;10600558;27;20043;-73
2024/02/17 12:50:55;;;;;;;3.38;3.03;;;;;;;11.28;84.91;151513.66;10650981;27;20047;-73
2024/02/17 12:55:56;;;;;;;3.20;2.90;;;;;;;11.61;84.90;151596.38;10654097;27;20050;-72
2024/02/17 13:00:58;;;;;;;3.55;1.80;;;;;;;11.66;84.17;151608.00;10674326;27;20057;-72
2024/02/17 13:06:04;;;;;;;2.10;1.90;;;;;;;11.18;82.30;151486.56;10655629;27;20047;-72
2024/02/17 13:11:06;;;;;;;2.63;2.20;;;;;;;11.01;84.70;151443.91;10655654;27;20463;-73
2024/02/17 13:16:09;;;;;;;3.55;2.17;;;;;;;11.25;84.04;151505.94;10674444;27;20060;-73
2024/02/17 13:21:11;;;;;;;2.50;2.30;;;;;;;11.22;82.91;151496.88;10676301;27;20056;-73
2024/02/17 13:26:13;;;;;;;2.47;2.28;;;;;;;11.23;82.07;151499.47;10673538;27;20143;-72
2024/02/17 13:31:18;;;;;;;2.80;1.92;;;;;;;11.24;82.32;151502.03;10672520;27;20042;-74
2024/02/17 13:36:20;;;;;;;2.97;2.03;;;;;;;11.25;83.87;151504.66;10653533;27;20038;-73
2024/02/17 13:41:23;;;;;;;2.83;1.98;;;;;;;11.16;82.52;151482.69;10673959;27;20122;-72
2024/02/17 13:46:25;;;;;;;2.05;1.50;;;;;;;11.04;83.41;151451.69;10676096;27;20039;-73
2024/02/17 13:51:28;;;;;;;2.38;2.17;;;;;;;11.07;83.84;151460.72;10658202;27;20502;-72
2024/02/17 13:56:30;;;;;;;5.53;2.72;;;;;;;11.25;82.90;151505.94;10656310;27;20087;-71
2024/02/17 14:01:32;;;;;;;3.35;1.92;;;;;;;11.04;83.25;151452.97;10673625;27;20088;-72
2024/02/17 14:06:34;;;;;;;2.22;2.03;;;;;;;10.91;84.48;151418.09;10640420;27;20039;-72
2024/02/17 14:11:36;;;;;;;2.83;2.03;;;;;;;11.01;83.00;151443.91;10653121;27;20053;-73
2024/02/17 14:16:39;;;;;;;2.88;2.47;;;;;;;10.86;85.30;151406.47;10671869;27;20054;-73
2024/02/17 14:21:41;;;;;;;2.35;1.92;;;;;;;10.67;85.61;151357.38;10653896;27;20388;-72
2024/02/17 14:26:43;;;;;;;2.15;1.95;;;;;;;11.05;84.68;151454.25;10675061;27;20482;-74
2024/02/17 14:31:45;;;;;;;3.03;2.45;;;;;;;10.88;86.86;151410.34;10676869;27;20121;-75
2024/02/17 14:36:47;;;;;;;2.67;2.17;;;;;;;10.90;87.08;151416.81;10673497;27;20095;-74
2024/02/17 14:41:52;;;;;;;2.00;1.80;;;;;;;11.12;86.66;151472.34;10673699;27;20043;-72
2024/02/17 14:46:55;;;;;;;3.92;2.63;;;;;;;10.88;86.99;151411.63;10674774;27;20081;-73
2024/02/17 14:51:57;;;;;;;4.25;2.58;;;;;;;10.57;88.55;151334.13;10675954;27;20113;-74
2024/02/17 14:56:59;;;;;;;2.10;1.70;;;;;;;10.65;87.74;151352.22;10656769;27;20031;-74
2024/02/17 15:02:01;;;;;;;2.97;1.60;;;;;;;10.57;87.87;151334.13;10653901;27;20038;-72
2024/02/17 15:07:03;;;;;;;2.70;2.03;;;;;;;10.54;88.53;151325.13;10654950;27;20045;-73
2024/02/17 15:12:06;;;;;;;3.45;2.42;;;;;;;10.46;89.19;151305.75;10678535;27;20038;-73
2024/02/17 15:17:07;;;;;;;2.47;2.28;;;;;;;10.59;88.81;151338.03;10681002;27;20136;-76
2024/02/17 15:22:09;;;;;;;2.92;1.98;;;;;;;10.44;90.00;151299.28;10679291;27;20498;-74
2024/02/17 15:27:12;;;;;;;2.15;1.95;;;;;;;10.48;89.69;151310.91;10661682;27;20095;-73
2024/02/17 15:32:14;;;;;;;2.85;2.13;;;;;;;10.52;90.48;151319.94;10677837;27;20055;-72
2024/02/17 15:37:16;;;;;;;2.33;1.70;;;;;;;10.34;90.38;151274.75;10677296;27;20164;-72
2024/02/17 15:42:17;;;;;;;1.73;1.20;;;;;;;10.23;87.13;151247.63;10657917;27;20082;-72
2024/02/17 15:47:19;;;;;;;1.13;1.02;;;;;;;10.22;87.34;151243.72;10657573;27;20066;-71
2024/02/17 15:52:22;;;;;;;2.30;1.25;;;;;;;10.22;87.63;151243.72;10630317;27;20067;-72
2024/02/17 15:57:24;;;;;;;1.58;0.93;;;;;;;10.14;86.73;151223.06;10635912;27;20126;-73
2024/02/17 16:02:26;;;;;;;1.08;0.95;;;;;;;9.99;86.31;151186.94;10584927;28;20047;-73
2024/02/17 16:07:30;;;;;;;2.25;1.40;;;;;;;10.07;85.50;151207.59;10640240;27;20042;-72
2024/02/17 16:12:32;;;;;;;1.65;1.17;;;;;;;9.96;85.16;151177.88;10666655;27;20039;-71
2024/02/17 16:17:35;;;;;;;2.97;0.90;;;;;;;10.08;83.92;151208.88;10632468;27;20044;-75
2024/02/17 16:22:42;;;;;;;1.10;1.00;;;;;;;9.92;84.17;151168.91;10608283;27;20057;-73
2024/02/17 16:27:43;;;;;;;;;;;;;;;9.74;84.96;151122.41;10677232;27;20039;-73
2024/02/17 16:32:45;;;;;;;1.27;0.90;;;;;;;9.67;85.04;151105.66;10637412;27;19919;-72
2024/02/17 16:37:47;;;;;;;2.90;1.35;;;;;;;9.71;85.80;151115.97;10614531;27;20043;-73
2024/02/17 16:42:49;;;;;;;2.85;1.50;;;;;;;9.59;86.79;151085.00;10632289;27;20046;-72
2024/02/17 16:47:53;;;;;;;2.05;1.30;;;;;;;9.56;87.03;151077.25;10632188;27;20046;-72
2024/02/17 16:52:55;;;;;;;3.30;1.73;;;;;;;9.64;86.82;151096.59;10632150;27;20126;-73
2024/02/17 16:57:57;;;;;;;3.70;2.40;;;;;;;9.35;88.27;151024.38;10653777;27;20384;-73
2024/02/17 17:02:59;;;;;;;5.55;5.10;;;;;;;9.60;86.85;151088.84;10672710;27;20039;-73
2024/02/17 17:08:01;;;;;;;6.20;4.13;;;;;;;9.43;88.22;151045.03;10631626;27;20067;-72
2024/02/17 17:13:03;;;;;;;5.00;3.28;;;;;;;9.23;90.12;150993.41;10611502;27;20059;-72
2024/02/17 17:18:05;;;;;;;4.18;3.70;;;;;;;9.33;89.26;151019.19;10628596;27;20042;-72
2024/02/17 17:23:07;;;;;;;9.48;6.50;;;;;;;9.45;87.78;151050.16;10634434;27;20070;-73
2024/02/17 17:28:09;;;;;;;6.25;3.95;;;;;;;9.28;88.57;151006.31;10620196;27;20068;-74
2024/02/17 17:33:11;;;;;;;10.90;9.55;;;;;;;9.05;90.95;150948.28;10600497;27;20437;-73
2024/02/17 17:38:13;;;;;;;5.57;3.90;;;;;;;9.11;90.44;150963.72;10627086;27;20067;-72
2024/02/17 17:43:15;;;;;;;7.32;4.95;;;;;;;8.93;91.91;150918.59;10622271;27;20043;-72
2024/02/17 17:48:17;;;;;;;10.73;8.18;;;;;;;8.87;92.72;150901.84;10589646;28;20061;-72
2024/02/17 17:53:19;;;;;;;18.63;13.20;;;;;;;8.92;92.41;150916.03;10585624;28;20116;-72
2024/02/17 17:58:21;;;;;;;5.30;4.22;;;;;;;8.80;93.60;150885.06;10584459;28;20039;-73
2024/02/17 18:03:23;;;;;;;14.02;9.77;;;;;;;9.23;90.87;150993.41;10589589;27;20039;-72
2024/02/17 18:08:28;;;;;;;10.88;7.82;;;;;;;8.86;93.18;150899.28;10568759;28;20560;-72
2024/02/17 18:13:30;;;;;;;10.30;9.20;;;;;;;8.90;93.00;150910.88;10585235;28;20130;-72
2024/02/17 18:18:31;;;;;;;7.20;6.38;;;;;;;8.83;93.86;150892.81;10567424;28;20054;-72
2024/02/17 18:23:34;;;;;;;7.10;3.85;;;;;;;8.62;94.81;150839.94;10568677;28;20055;-73
2024/02/17 18:28:36;;;;;;;4.38;3.92;;;;;;;8.47;95.43;150802.56;10586527;28;20039;-72
2024/02/17 18:33:42;;;;;;;5.07;4.32;;;;;;;8.38;96.30;150779.38;10585975;28;20043;-72
2024/02/17 18:38:46;;;;;;;;;;;;;;;8.32;97.12;150763.84;10569609;28;20058;-73
2024/02/17 18:43:49;;;;;;;3.42;3.13;;;;;;;8.23;98.13;150740.63;10572012;28;20410;-72
2024/02/17 18:48:51;;;;;;;4.20;3.80;;;;;;;8.27;97.71;150752.22;10593291;28;20551;-72
2024/02/17 18:53:54;;;;;;;7.00;6.40;;;;;;;8.31;97.55;150761.25;10593270;28;20130;-73
2024/02/17 18:58:56;;;;;;;5.18;4.68;;;;;;;8.11;98.66;150709.75;10575469;28;20048;-73
2024/02/17 19:03:58;;;;;;;3.95;3.53;;;;;;;8.34;97.12;150769.00;10594739;28;20576;-73
2024/02/17 19:09:00;;;;;;;5.40;4.47;;;;;;;7.99;98.03;150681.38;10595258;28;20089;-73
2024/02/17 19:14:02;;;;;;;5.38;4.82;;;;;;;7.82;99.32;150638.84;10594339;28;20444;-73
2024/02/17 19:19:04;;;;;;;5.35;4.22;;;;;;;7.78;97.54;150627.25;10594181;28;20043;-73
2024/02/17 19:24:07;;;;;;;3.60;2.65;;;;;;;7.61;96.87;150583.44;10652501;27;20122;-73
2024/02/17 19:29:08;;;;;;;2.33;1.95;;;;;;;7.45;96.85;150543.53;10646643;27;20114;-73
2024/02/17 19:34:10;;;;;;;2.03;1.80;;;;;;;7.31;97.27;150510.03;10679599;27;20068;-72
2024/02/17 19:39:13;;;;;;;3.42;2.38;;;;;;;7.23;98.24;150489.44;10655520;27;20039;-72
2024/02/17 19:44:15;;;;;;;3.75;2.15;;;;;;;7.15;98.76;150468.81;10635947;27;20095;-72
2024/02/17 19:49:17;;;;;;;3.95;2.28;;;;;;;7.20;98.80;150480.41;10616312;27;20039;-72
2024/02/17 19:54:19;;;;;;;3.97;2.40;;;;;;;7.12;99.90;150461.06;10616122;27;20051;-73
2024/02/17 19:59:21;;;;;;;3.85;2.85;;;;;;;7.15;99.62;150467.53;10654855;27;20096;-73
2024/02/17 20:04:27;;;;;;;2.80;2.45;;;;;;;6.95;100.00;150418.63;10631911;27;20070;-73
2024/02/17 20:09:29;;;;;;;2.45;2.25;;;;;;;6.87;100.00;150396.75;10676541;27;20031;-73
2024/02/17 20:14:32;;;;;;;3.80;2.65;;;;;;;6.96;100.00;150421.19;10627955;27;20035;-73
2024/02/17 20:19:34;;;;;;;5.22;4.00;;;;;;;7.23;98.33;150488.16;10615485;27;20047;-72
2024/02/17 20:24:37;;;;;;;4.13;3.55;;;;;;;7.08;97.99;150450.78;10632369;27;20491;-72
2024/02/17 20:29:39;;;;;;;3.80;3.20;;;;;;;7.19;97.20;150477.84;10644233;27;20107;-72
2024/02/17 20:34:41;;;;;;;4.22;2.85;;;;;;;6.87;99.70;150396.75;10674276;27;20046;-73
2024/02/17 20:39:46;;;;;;;3.03;2.13;;;;;;;6.75;100.00;150367.09;10675702;27;20031;-77
2024/02/17 20:44:48;;;;;;;3.40;3.03;;;;;;;6.71;100.00;150356.81;10655695;27;20074;-74
2024/02/17 20:49:50;;;;;;;4.95;2.45;;;;;;;6.37;100.00;150271.84;10629615;27;20092;-75
2024/02/17 20:54:53;;;;;;;3.17;2.53;;;;;;;6.28;100.00;150248.69;10611727;27;20036;-75
2024/02/17 20:59:55;;;;;;;2.55;2.35;;;;;;;6.62;100.00;150334.91;10628916;27;20516;-75
2024/02/17 21:04:57;;;;;;;3.90;2.67;;;;;;;6.53;100.00;150313.03;10627094;27;20422;-76
2024/02/17 21:10:00;;;;;;;3.05;2.35;;;;;;;6.04;100.00;150189.50;10630052;27;20043;-75
2024/02/17 21:15:04;;;;;;;2.92;2.63;;;;;;;5.73;100.00;150110.97;10611317;27;20042;-76
2024/02/17 21:20:07;;;;;;;3.75;3.00;;;;;;;5.68;100.00;150098.13;10628367;27;20067;-75
2024/02/17 21:25:10;;;;;;;3.13;1.83;;;;;;;5.95;100.00;150165.06;10628384;27;20046;-75
2024/02/17 21:30:12;;;;;;;3.63;2.67;;;;;;;5.94;100.00;150162.50;10628670;27;20491;-75
2024/02/17 21:35:14;;;;;;;4.80;2.47;;;;;;;5.44;100.00;150036.38;10629157;27;20092;-76
2024/02/17 21:40:16;;;;;;;3.63;2.67;;;;;;;5.36;100.00;150017.13;10629881;27;20073;-75
2024/02/17 21:45:18;;;;;;;3.00;2.13;;;;;;;5.01;100.00;149929.69;10626262;27;20135;-75
2024/02/17 21:50:20;;;;;;;2.90;2.42;;;;;;;5.13;100.00;149959.22;10628362;27;20047;-75
2024/02/17 21:55:22;;;;;;;4.03;3.03;;;;;;;5.21;100.00;149978.50;10628871;27;20066;-75
2024/02/17 22:00:23;;;;;;;4.68;3.60;;;;;;;4.79;100.00;149874.41;10628320;27;20104;-76
2024/02/17 22:05:25;;;;;;;6.75;5.60;;;;;;;4.97;100.00;149919.38;10627143;27;20058;-76
2024/02/17 22:10:27;;;;;;;7.18;6.57;;;;;;;4.82;100.00;149880.78;10608726;27;20449;-78
2024/02/17 22:15:31;;;;;;;6.38;4.93;;;;;;;4.78;100.00;149870.50;10627424;27;20083;-76
2024/02/17 22:20:34;;;;;;;7.75;5.45;;;;;;;4.40;100.00;149774.16;10608881;27;20039;-75
2024/02/17 22:25:36;;;;;;;5.88;4.35;;;;;;;4.42;100.00;149780.56;10626537;28;20392;-75
2024/02/17 22:30:37;;;;;;;6.45;4.45;;;;;;;4.69;100.00;149847.38;10625879;28;20035;-77
2024/02/17 22:35:42;;;;;;;5.82;4.40;;;;;;;4.56;100.00;149815.28;10607029;28;20122;-75
2024/02/17 22:40:44;;;;;;;7.30;5.20;;;;;;;4.33;100.00;149756.16;10625341;28;20448;-75
2024/02/17 22:45:45;;;;;;;5.70;5.13;;;;;;;4.03;100.00;149681.69;10624574;28;20077;-75
2024/02/17 22:50:48;;;;;;;5.88;5.03;;;;;;;3.93;100.00;149657.22;10625464;28;20493;-75
2024/02/17 22:55:50;;;;;;;6.07;4.93;;;;;;;4.20;100.00;149724.03;10625239;28;20126;-75
2024/02/17 23:00:52;;;;;;;6.45;4.50;;;;;;;3.90;100.00;149649.56;10624826;28;20410;-75
2024/02/17 23:05:54;;;;;;;4.38;3.33;;;;;;;4.19;100.00;149721.47;10625849;28;20081;-75
2024/02/17 23:10:55;;;;;;;7.15;4.60;;;;;;;3.95;100.00;149662.41;10625011;28;20043;-75